x

Northwestern Hawaii One - 170 Nm West Northwest Of Kauai Island (51001) Weather Station

8:40am - Sat 29th Aug 2015 All times are HST. -10 hours from GMT.

  • Wind
    11mph, 13mph gusts
  • Sea Temp 83°f
  • Air Temp 80°f
  • Sea Pressure 1013.5mb
  • Northwestern Hawaii One - 170 Nm West Northwest Of Kauai Island
  • Northwestern Hawaii One - 170 Nm West Northwest Of Kauai Island

More Historic Weather Station data

Upgrade to MSW Pro to gain access to the past 30 days of data for over 8000 Wavebouys and Weather Stations around the globe.

Join Pro

Comparision Forecast

View Surf forecast
   
Sat 08/29 8:40am  -   -   -  11 13 mph 1013.5mb 83f 80f
8:30am  -   -   -  11 13 mph 1013.5mb 83f 79f
8:20am  -   -   -  11 13 mph 1013.4mb 83f 79f
8:10am  -   -   -  7 11 mph 1013.5mb 83f 78f
8:00am  -   -   -  7 9 mph 1013.4mb 83f 78f
7:50am 8ft 8s 7s 9 13 mph 1013.3mb 83f 77f
7:40am  -   -   -  13 18 mph 1013.4mb 83f 77f
7:30am  -   -   -  16 20 mph 1013.3mb 83f 77f
7:20am  -   -   -  18 22 mph 1013.1mb 83f 77f
7:10am  -   -   -  18 22 mph 1013mb 83f 78f
7:00am  -   -   -  18 22 mph 1012.9mb 83f 80f
6:50am 7.5ft 14s 7s 16 20 mph 1012.6mb 83f 80f
6:40am 7.5ft  -  7s 16 20 mph 1012.5mb 83f 80f
6:30am  -   -   -  16 18 mph 1012.5mb 83f 80f
6:20am  -   -   -  13 18 mph 1012.5mb 83f 80f
6:10am  -   -   -  11 18 mph 1012.5mb 83f 81f
6:00am  -   -   -  11 16 mph 1012.5mb 83f 81f
5:50am 8ft 14s 7s 13 16 mph 1012.4mb 83f 80f
5:40am  -   -   -  13 18 mph 1012.3mb 83f 80f
5:30am  -   -   -  13 20 mph 1012.1mb 83f 80f
5:20am  -   -   -  16 18 mph 1012mb 83f 80f
5:10am  -   -   -  16 20 mph 1012.1mb 83f 80f
5:00am  -   -   -  16 18 mph 1012.1mb 83f 80f
4:50am 8ft 14s 7s 16 20 mph 1012.3mb 83f 80f
4:40am  -   -   -  16 18 mph 1012.3mb 83f 80f
4:30am  -   -   -  16 18 mph 1012.4mb 83f 80f
4:20am  -   -   -  13 18 mph 1012.1mb 83f 80f
4:10am  -   -   -  13 18 mph 1012.1mb 83f 80f
4:00am  -   -   -  16 20 mph 1012.1mb 83f 80f
3:50am 7ft 8s 7s 16 20 mph 1012.1mb 83f 81f
3:40am  -   -   -  13 18 mph 1012.1mb 83f 80f
3:30am  -   -   -  9 13 mph 1012.3mb 83f 78f
3:20am  -   -   -  13 20 mph 1012.4mb 83f 78f
3:10am  -   -   -  20 27 mph 1012.4mb 83f 80f
3:00am  -   -   -  13 22 mph 1012.3mb 83f 80f
2:50am 8ft 15s 8s 13 25 mph 1012.5mb 83f 81f
2:40am  -   -   -  13 16 mph 1012.5mb 83f 81f
2:30am  -   -   -  11 16 mph 1012.6mb 83f 81f
2:20am  -   -   -  11 16 mph 1012.8mb 83f 81f
2:10am  -   -   -  11 16 mph 1013mb 83f 81f
2:00am  -   -   -  11 16 mph 1013mb 83f 80f
1:50am 7.5ft 14s 8s 11 13 mph 1013mb 83f 80f
1:40am  -   -   -  11 16 mph 1013mb 83f 80f
1:30am  -   -   -  16 20 mph 1013.1mb 83f 80f
1:20am  -   -   -  16 20 mph 1013.4mb 83f 81f
1:10am  -   -   -  13 18 mph 1013.4mb 83f 81f
1:00am  -   -   -  11 16 mph 1013.4mb 83f 81f
12:50am 7.5ft 15s 8s 11 16 mph 1013.5mb 83f 81f
12:40am  -   -   -  13 16 mph 1013.5mb 83f 81f
12:30am  -   -   -  11 16 mph 1013.6mb 83f 81f
12:20am  -   -   -  13 16 mph 1013.8mb 83f 81f
12:10am  -   -   -  11 16 mph 1013.9mb 83f 81f
12:00am  -   -   -  11 16 mph 1014mb 83f 81f
Fri 08/28 11:50pm 8ft 14s 8s 11 16 mph 1014mb 83f 82f
11:40pm  -   -   -  13 18 mph 1014mb 83f 81f
11:30pm  -   -   -  13 18 mph 1014mb 83f 81f
11:20pm  -   -   -  13 18 mph 1014.1mb 83f 81f
11:10pm  -   -   -  13 18 mph 1014.1mb 83f 81f
11:00pm  -   -   -  13 18 mph 1014.3mb 83f 81f
10:50pm 7ft 13s 8s 16 18 mph 1014mb 83f 81f
10:40pm  -   -   -  13 18 mph 1014mb 83f 81f
10:30pm  -   -   -  16 18 mph 1014mb 83f 81f
10:20pm  -   -   -  16 18 mph 1014mb 83f 82f
10:10pm  -   -   -  13 18 mph 1014mb 83f 81f
10:00pm  -   -   -  13 18 mph 1014.1mb 83f 81f
9:50pm 7.5ft 14s 8s 13 18 mph 1014.1mb 83f 81f
9:40pm 7.5ft  -  8s 13 16 mph 1014.1mb 83f 82f
9:30pm  -   -   -  13 16 mph 1014.3mb 83f 82f
9:20pm  -   -   -  13 16 mph 1014mb 83f 82f
9:10pm  -   -   -  13 18 mph 1014mb 83f 81f
9:00pm  -   -   -  13 18 mph 1014mb 83f 81f
8:50pm 8ft 15s 8s 13 18 mph 1013.8mb 83f 81f
8:40pm  -   -   -  13 18 mph 1013.6mb 83f 81f
8:30pm  -   -   -  13 20 mph 1013.5mb 83f 81f
8:20pm  -   -   -  13 18 mph 1013.4mb 83f 82f
8:10pm  -   -   -  13 18 mph 1013.3mb 83f 82f
8:00pm  -   -   -  13 18 mph 1013.3mb 83f 82f
7:50pm 7.5ft 16s 8s 13 18 mph 1013.1mb 83f 82f
7:40pm  -   -   -  13 18 mph 1013mb 83f 81f
7:30pm  -   -   -  16 20 mph 1013mb 83f 82f
7:20pm  -   -   -  16 18 mph 1012.8mb 83f 82f
7:10pm  -   -   -  16 20 mph 1012.5mb 83f 82f
7:00pm  -   -   -  16 20 mph 1012.5mb 83f 82f
6:50pm  -   -   -  16 18 mph 1012.5mb 83f 81f
6:40pm  -   -   -  16 20 mph 1012.5mb 83f 82f
6:30pm  -   -   -  13 18 mph 1012.5mb 83f 82f
6:20pm  -   -   -  13 18 mph 1012.4mb 83f 82f
6:10pm  -   -   -  16 20 mph 1012.3mb 83f 82f
6:00pm  -   -   -  16 20 mph 1012.3mb 83f 82f
5:50pm 8ft 16s 8s 16 20 mph 1012.3mb 83f 81f
5:40pm  -   -   -  16 20 mph 1012.3mb 83f 81f
5:30pm  -   -   -  16 20 mph 1012.3mb 83f 81f
5:20pm  -   -   -  16 20 mph 1012.5mb 83f 82f
5:10pm  -   -   -  13 18 mph 1012.4mb 84f 82f
5:00pm  -   -   -  13 18 mph 1012.3mb 84f 82f
4:50pm 8ft 16s 8s 13 18 mph 1012.4mb 84f 82f
4:40pm  -   -   -  13 18 mph 1012.4mb 84f 82f
4:30pm  -   -   -  13 18 mph 1012.5mb 83f 82f
4:20pm  -   -   -  13 18 mph 1012.5mb 83f 82f
4:10pm  -   -   -  13 18 mph 1012.5mb 83f 82f
4:00pm  -   -   -  13 18 mph 1012.5mb 83f 82f
3:50pm 7.5ft 15s 7s 13 18 mph 1012.5mb 83f 82f
3:40pm  -   -   -  13 18 mph 1012.5mb 83f 82f
3:30pm  -   -   -  16 20 mph 1012.8mb 83f 82f
3:20pm  -   -   -  13 18 mph 1012.8mb 83f 82f
3:10pm  -   -   -  13 18 mph 1012.9mb 83f 82f
3:00pm  -   -   -  13 18 mph 1012.9mb 83f 82f
2:50pm 8.5ft 15s 8s 13 18 mph 1013mb 83f 82f
2:40pm  -   -   -  13 18 mph 1013mb 83f 82f
2:30pm  -   -   -  13 18 mph 1013mb 83f 82f
2:20pm  -   -   -  13 18 mph 1013mb 83f 82f
2:10pm  -   -   -  13 18 mph 1013mb 83f 82f
2:00pm  -   -   -  13 16 mph 1013mb 83f 82f
1:50pm 8ft 15s 8s 13 18 mph 1013.3mb 83f 82f
1:40pm  -   -   -  13 20 mph 1013.3mb 83f 82f
1:30pm  -   -   -  16 18 mph 1013.3mb 83f 82f
1:20pm  -   -   -  13 18 mph 1013.4mb 83f 82f
1:10pm  -   -   -  13 20 mph 1013.5mb 83f 82f
1:00pm  -   -   -  16 20 mph 1013.5mb 83f 82f
12:50pm 8ft 14s 8s 16 20 mph 1013.6mb 83f 82f
12:40pm  -   -   -  13 18 mph 1013.8mb 83f 82f
12:30pm  -   -   -  13 18 mph 1013.9mb 83f 82f
12:20pm  -   -   -  16 20 mph 1013.9mb 83f 82f
12:10pm  -   -   -  16 20 mph 1013.9mb 83f 82f
12:00pm  -   -   -  16 18 mph 1013.8mb 83f 82f
11:50am 8.5ft 15s 9s 16 20 mph 1013.9mb 83f 82f
11:40am 8.5ft  -  9s 16 20 mph 1014mb 83f 82f
11:30am  -   -   -  16 20 mph 1014mb 83f 82f
11:20am  -   -   -  16 18 mph 1014mb 83f 82f
11:10am  -   -   -  16 20 mph 1014mb 83f 82f
11:00am  -   -   -  16 18 mph 1014mb 83f 82f
10:50am 8.5ft 15s 9s 13 18 mph 1014mb 83f 82f
10:40am  -   -   -  13 18 mph 1014.1mb 83f 82f
10:30am  -   -   -  13 18 mph 1014mb 83f 82f
10:20am  -   -   -  13 18 mph 1014mb 83f 82f
10:10am  -   -   -  13 18 mph 1014mb 83f 82f
10:00am  -   -   -  11 16 mph 1014mb 83f 82f
9:50am 8ft 15s 9s 13 16 mph 1014mb 83f 82f
9:40am  -   -   -  13 16 mph 1014mb 83f 82f
9:30am  -   -   -  13 18 mph 1014mb 83f 82f
9:20am  -   -   -  13 18 mph 1014mb 83f 82f
9:10am  -   -   -  13 16 mph 1014mb 83f 82f
9:00am  -   -   -  13 16 mph 1014mb 83f 82f
8:50am 8.5ft 15s 9s 11 18 mph 1014mb 83f 82f
8:40am  -   -   -  13 16 mph 1013.9mb 83f 82f
8:30am  -   -   -  13 16 mph 1013.9mb 83f 82f
8:20am  -   -   -  13 16 mph 1013.6mb 83f 82f
8:10am  -   -   -  13 16 mph 1013.5mb 83f 82f
8:00am  -   -   -  11 16 mph 1013.5mb 83f 82f
7:50am 8ft 16s 9s 11 16 mph 1013.4mb 83f 82f
7:40am 8ft  -  9s 11 16 mph 1013.5mb 83f 82f
7:30am  -   -   -  11 16 mph 1013.4mb 83f 82f
7:20am  -   -   -  11 16 mph 1013.3mb 83f 81f
7:10am  -   -   -  11 16 mph 1013mb 83f 81f
7:00am  -   -   -  11 16 mph 1013mb 83f 81f
6:50am 8ft 15s 9s 11 13 mph 1013mb 83f 81f
6:40am 8ft  -  9s 11 16 mph 1013mb 83f 81f
6:30am  -   -   -  11 13 mph 1013mb 83f 81f
6:20am  -   -   -  11 16 mph 1012.8mb 83f 81f
6:10am  -   -   -  11 16 mph 1012.8mb 83f 81f
6:00am  -   -   -  11 16 mph 1012.6mb 83f 81f
5:50am 7ft 16s 8s 11 16 mph 1012.5mb 83f 81f
5:40am 7ft  -  8s 11 13 mph 1012.5mb 83f 81f
5:30am  -   -   -  11 16 mph 1012.5mb 83f 81f
5:20am  -   -   -  11 16 mph 1012.5mb 83f 81f
5:10am  -   -   -  11 16 mph 1012.5mb 83f 81f
5:00am  -   -   -  11 16 mph 1012.4mb 83f 81f
4:50am 8ft 17s 9s 11 16 mph 1012.4mb 83f 81f
4:40am  -   -   -  11 16 mph 1012.4mb 83f 81f
4:30am  -   -   -  11 16 mph 1012.4mb 83f 81f
4:20am  -   -   -  11 16 mph 1012.3mb 83f 81f
4:10am  -   -   -  13 16 mph 1012.3mb 83f 81f
4:00am  -   -   -  13 16 mph 1012.3mb 83f 81f
3:50am 8.5ft 16s 9s 11 16 mph 1012.3mb 83f 81f
3:40am  -   -   -  11 16 mph 1012.3mb 83f 81f
3:30am  -   -   -  13 16 mph 1012.1mb 83f 81f
3:20am  -   -   -  13 16 mph 1012.3mb 83f 81f
3:10am  -   -   -  13 18 mph 1012.4mb 83f 81f
3:00am  -   -   -  13 16 mph 1012.4mb 83f 81f
2:50am 8ft 16s 9s 13 18 mph 1012.5mb 83f 81f
2:40am  -   -   -  11 13 mph 1012.5mb 83f 81f
2:30am  -   -   -  13 16 mph 1012.5mb 83f 81f
2:20am  -   -   -  11 16 mph 1012.6mb 83f 81f
2:10am  -   -   -  13 16 mph 1012.6mb 83f 81f
2:00am  -   -   -  11 16 mph 1012.8mb 83f 81f
1:50am 7ft 9s 9s 11 13 mph 1012.8mb 83f 81f
1:40am  -   -   -  11 13 mph 1012.8mb 83f 81f
1:30am  -   -   -  11 16 mph 1012.9mb 83f 81f
1:20am  -   -   -  11 13 mph 1013mb 83f 81f
1:10am  -   -   -  11 13 mph 1013mb 83f 81f
1:00am  -   -   -  9 13 mph 1013mb 83f 81f
12:50am  -   -   -  9 11 mph 1013.1mb 83f 81f
12:40am  -   -   -  11 13 mph 1013.3mb 83f 82f
12:30am  -   -   -  11 13 mph 1013.3mb 83f 81f
12:20am  -   -   -  11 13 mph 1013.4mb 83f 81f
12:10am  -   -   -  9 13 mph 1013.3mb 83f 81f
12:00am  -   -   -  9 16 mph 1013.4mb 83f 81f
Thu 08/27 11:50pm 8ft 17s 10s 11 13 mph 1013.5mb 83f 81f
11:40pm  -   -   -  9 13 mph 1013.5mb 83f 81f
11:30pm  -   -   -  11 13 mph 1013.5mb 83f 81f
11:20pm  -   -   -  11 13 mph 1013.5mb 83f 82f
11:10pm  -   -   -  11 13 mph 1013.6mb 83f 82f
11:00pm  -   -   -  11 13 mph 1013.6mb 83f 82f
10:50pm 7ft 14s 9s 11 13 mph 1013.6mb 83f 82f
10:40pm  -   -   -  9 13 mph 1013.6mb 83f 82f
10:30pm  -   -   -  9 13 mph 1013.8mb 83f 82f
10:20pm  -   -   -  9 13 mph 1013.6mb 83f 82f
10:10pm  -   -   -  9 11 mph 1013.6mb 83f 82f
10:00pm  -   -   -  9 11 mph 1013.6mb 83f 82f
9:50pm 7ft 14s 9s 9 11 mph 1013.6mb 83f 82f
9:40pm 7ft  -  9s 9 11 mph 1013.6mb 83f 82f
9:30pm  -   -   -  9 13 mph 1013.5mb 83f 82f
9:20pm  -   -   -  9 13 mph 1013.5mb 83f 82f
9:10pm  -   -   -  9 13 mph 1013.5mb 83f 82f
9:00pm  -   -   -  9 13 mph 1013.4mb 83f 82f
8:50pm 7ft 15s 9s 11 13 mph 1013.3mb 83f 82f
8:40pm  -   -   -  9 13 mph 1013mb 83f 82f
8:30pm  -   -   -  11 13 mph 1012.9mb 83f 82f
8:20pm  -   -   -  11 16 mph 1012.8mb 83f 82f
8:10pm  -   -   -  11 13 mph 1012.6mb 83f 82f
8:00pm  -   -   -  11 13 mph 1012.5mb 83f 82f
7:50pm 7.5ft 16s 9s 11 13 mph 1012.5mb 83f 82f
7:40pm  -   -   -  11 13 mph 1012.4mb 83f 82f
7:30pm  -   -   -  11 13 mph 1012.3mb 83f 82f
7:20pm  -   -   -  11 16 mph 1012.1mb 83f 82f
7:10pm  -   -   -  11 16 mph 1012mb 83f 82f
7:00pm  -   -   -  11 13 mph 1012mb 83f 82f
6:50pm 7ft 15s 9s 11 13 mph 1012mb 83f 82f
6:40pm  -   -   -  11 16 mph 1011.9mb 83f 82f
6:30pm  -   -   -  11 13 mph 1011.8mb 83f 82f
6:20pm  -   -   -  11 13 mph 1011.8mb 83f 82f
6:10pm  -   -   -  11 13 mph 1011.5mb 83f 82f
6:00pm  -   -   -  11 13 mph 1011.5mb 83f 82f
5:50pm 7.5ft 15s 9s 11 13 mph 1011.4mb 83f 82f
5:40pm  -   -   -  11 13 mph 1011.3mb 83f 82f
5:30pm  -   -   -  11 13 mph 1011.3mb 83f 82f
5:20pm  -   -   -  11 13 mph 1011.4mb 84f 82f
5:10pm  -   -   -  11 13 mph 1011.4mb 84f 82f
5:00pm  -   -   -  11 13 mph 1011.4mb 83f 82f
4:50pm 6.5ft 10s 8s 11 13 mph 1011.4mb 84f 82f
4:40pm  -   -   -  11 16 mph 1011.5mb 84f 82f
4:30pm  -   -   -  9 13 mph 1011.5mb 84f 82f
4:20pm  -   -   -  9 13 mph 1011.5mb 84f 82f
4:10pm  -   -   -  9 13 mph 1011.5mb 84f 82f
4:00pm  -   -   -  9 13 mph 1011.5mb 84f 82f
3:50pm 6.5ft 14s 8s 9 13 mph 1011.5mb 84f 82f
3:40pm  -   -   -  9 13 mph 1011.6mb 84f 82f
3:30pm  -   -   -  9 11 mph 1011.6mb 84f 82f
3:20pm  -   -   -  9 11 mph 1011.5mb 84f 82f
3:10pm  -   -   -  9 11 mph 1011.5mb 84f 82f
3:00pm  -   -   -  9 13 mph 1011.5mb 83f 82f
2:50pm 7ft 10s 8s 9 13 mph 1011.6mb 83f 82f
2:40pm 7ft  -  8s 9 13 mph 1012mb 83f 82f
2:30pm  -   -   -  9 13 mph 1012mb 83f 82f
2:20pm  -   -   -  9 16 mph 1012mb 83f 82f
2:10pm  -   -   -  9 13 mph 1012mb 83f 82f
2:00pm  -   -   -  9 13 mph 1012mb 83f 82f
1:50pm 6.5ft 12s 8s 11 13 mph 1012mb 83f 82f
1:40pm  -   -   -  11 13 mph 1012mb 83f 82f
1:30pm  -   -   -  11 13 mph 1012.1mb 83f 82f
1:20pm  -   -   -  11 13 mph 1012.1mb 83f 82f
1:10pm  -   -   -  11 16 mph 1012.1mb 84f 82f
1:00pm  -   -   -  11 16 mph 1012.3mb 83f 82f
12:50pm 7ft 15s 9s 11 13 mph 1012.3mb 83f 82f
12:40pm  -   -   -  11 13 mph 1012.5mb 83f 82f
12:30pm  -   -   -  11 16 mph 1012.5mb 83f 82f
12:20pm  -   -   -  11 16 mph 1012.6mb 83f 82f
12:10pm  -   -   -  11 13 mph 1012.6mb 83f 82f
12:00pm  -   -   -  11 16 mph 1012.8mb 83f 82f
11:50am 7ft 14s 9s 11 13 mph 1012.9mb 83f 82f
11:40am  -   -   -  11 13 mph 1012.9mb 83f 82f
11:30am  -   -   -  9 13 mph 1012.9mb 83f 82f
11:20am  -   -   -  9 11 mph 1013mb 83f 82f
11:10am  -   -   -  9 13 mph 1013mb 83f 82f
11:00am  -   -   -  9 13 mph 1012.9mb 83f 82f
10:50am 7ft 13s 9s 9 11 mph 1012.9mb 83f 82f
10:40am  -   -   -  9 13 mph 1013mb 83f 82f
10:30am  -   -   -  11 13 mph 1012.9mb 83f 82f
10:20am  -   -   -  11 13 mph 1013mb 83f 82f
10:10am  -   -   -  9 13 mph 1013mb 83f 82f
10:00am  -   -   -  9 11 mph 1012.9mb 83f 82f
9:50am 6ft 15s 9s 9 11 mph 1012.9mb 83f 82f
9:40am  -   -   -  9 13 mph 1012.9mb 83f 82f
9:30am  -   -   -  9 13 mph 1012.8mb 83f 82f
9:20am  -   -   -  9 13 mph 1012.6mb 83f 82f
9:10am  -   -   -  9 13 mph 1012.6mb 83f 82f
9:00am  -   -   -  9 13 mph 1012.6mb 83f 82f
8:50am 6.5ft 13s 9s 9 13 mph 1012.6mb 83f 82f
8:40am  -   -   -  9 13 mph 1012.6mb 83f 82f
8:30am  -   -   -  9 11 mph 1012.5mb 83f 82f
8:20am  -   -   -  7 11 mph 1012.5mb 83f 82f
8:10am  -   -   -  7 11 mph 1012.5mb 83f 82f
8:00am  -   -   -  7 9 mph 1012.5mb 83f 82f
7:50am 6.5ft 14s 9s 7 11 mph 1012.4mb 83f 82f
7:40am 6.5ft  -  9s 9 11 mph 1012.3mb 83f 82f
7:30am  -   -   -  7 11 mph 1012mb 83f 82f
7:20am  -   -   -  9 11 mph 1012mb 83f 82f
7:10am  -   -   -  7 11 mph 1011.9mb 83f 81f
7:00am  -   -   -  9 11 mph 1011.9mb 83f 81f
6:50am  -   -   -  9 11 mph 1011.9mb 83f 81f
6:40am  -   -   -  9 11 mph 1011.6mb 83f 81f
6:30am  -   -   -  9 13 mph 1011.5mb 83f 81f
6:20am  -   -   -  9 11 mph 1011.5mb 83f 81f
6:10am  -   -   -  9 11 mph 1011.5mb 83f 81f
6:00am  -   -   -  9 11 mph 1011.3mb 83f 81f
5:50am 7ft 13s 9s 9 13 mph 1011.1mb 83f 81f
5:40am  -   -   -  9 11 mph 1011mb 83f 81f
5:30am  -   -   -  9 13 mph 1011mb 83f 81f
5:20am  -   -   -  9 13 mph 1010.9mb 83f 81f
5:10am  -   -   -  9 13 mph 1010.9mb 83f 81f
5:00am  -   -   -  9 13 mph 1011mb 83f 81f
4:50am 7ft 12s 8s 11 16 mph 1011mb 83f 81f
4:40am 7ft  -  8s 11 13 mph 1010.9mb 83f 81f
4:30am  -   -   -  9 13 mph 1010.9mb 83f 81f
4:20am  -   -   -  9 13 mph 1010.9mb 83f 81f
4:10am  -   -   -  9 13 mph 1011mb 83f 81f
4:00am  -   -   -  11 13 mph 1011mb 83f 81f
3:50am 7ft 14s 9s 11 13 mph 1011mb 83f 82f
3:40am  -   -   -  9 13 mph 1011mb 83f 82f
3:30am  -   -   -  11 13 mph 1011mb 83f 82f
3:20am  -   -   -  9 13 mph 1011.1mb 83f 82f
3:10am  -   -   -  9 11 mph 1011.1mb 83f 82f
3:00am  -   -   -  9 11 mph 1011.1mb 83f 82f
2:50am 7ft 14s 8s 7 9 mph 1011.3mb 83f 82f
2:40am  -   -   -  7 11 mph 1011.4mb 83f 82f
2:30am  -   -   -  7 11 mph 1011.4mb 83f 82f
2:20am  -   -   -  7 11 mph 1011.5mb 83f 82f
2:10am  -   -   -  7 9 mph 1011.6mb 83f 82f
2:00am  -   -   -  7 11 mph 1011.8mb 83f 82f
1:50am 6ft 14s 8s 7 11 mph 1011.8mb 83f 82f
1:40am 6ft  -  8s 7 9 mph 1011.9mb 83f 82f
1:30am  -   -   -  7 11 mph 1012mb 83f 82f
1:20am  -   -   -  7 11 mph 1012.1mb 83f 82f
1:10am  -   -   -  7 11 mph 1012.1mb 83f 82f
1:00am  -   -   -  7 11 mph 1012.1mb 83f 82f
12:50am 6.5ft 12s 9s 7 11 mph 1012.3mb 83f 82f
12:40am  -   -   -  9 11 mph 1012.4mb 83f 82f
12:30am  -   -   -  9 11 mph 1012.5mb 83f 82f
12:20am  -   -   -  7 11 mph 1012.5mb 83f 82f
12:10am  -   -   -  7 9 mph 1012.5mb 83f 82f
12:00am  -   -   -  7 9 mph 1012.5mb 83f 82f
Wed 08/26 11:50pm 6.5ft 14s 9s 7 9 mph 1012.6mb 83f 82f
11:40pm  -   -   -  4 11 mph 1012.6mb 83f 82f
11:30pm  -   -   -  4 9 mph 1012.6mb 83f 82f
11:20pm  -   -   -  4 9 mph 1012.8mb 83f 82f
11:10pm  -   -   -  4 7 mph 1012.9mb 83f 82f
11:00pm  -   -   -  4 7 mph 1012.9mb 83f 82f
10:50pm 6ft 13s 9s 4 9 mph 1012.9mb 83f 82f
10:40pm  -   -   -  4 7 mph 1013mb 83f 82f
10:30pm  -   -   -  4 7 mph 1012.9mb 83f 82f
10:20pm  -   -   -  4 9 mph 1013mb 84f 82f
10:10pm  -   -   -  7 9 mph 1012.9mb 84f 82f
10:00pm  -   -   -  7 9 mph 1012.8mb 84f 82f
9:50pm 6ft 15s 9s 7 9 mph 1012.8mb 84f 82f
9:40pm  -   -   -  7 9 mph 1012.6mb 84f 82f
9:30pm  -   -   -  7 11 mph 1012.6mb 84f 82f
9:20pm  -   -   -  7 9 mph 1012.5mb 84f 83f
9:10pm  -   -   -  7 11 mph 1012.5mb 84f 82f
9:00pm  -   -   -  7 9 mph 1012.4mb 84f 83f
8:50pm 6ft 9s 9s 7 9 mph 1012.1mb 84f 83f
8:40pm  -   -   -  7 9 mph 1012mb 84f 83f
8:30pm  -   -   -  7 9 mph 1012mb 84f 83f
8:20pm  -   -   -  7 9 mph 1011.9mb 84f 83f
8:10pm  -   -   -  7 11 mph 1011.8mb 84f 83f
8:00pm  -   -   -  7 11 mph 1011.5mb 84f 83f
7:50pm 6ft 13s 9s 7 11 mph 1011.5mb 84f 83f
7:40pm  -   -   -  7 9 mph 1011.4mb 84f 83f
7:30pm  -   -   -  7 9 mph 1011.4mb 84f 83f
7:20pm  -   -   -  7 11 mph 1011.3mb 84f 83f
7:10pm  -   -   -  7 9 mph 1011.1mb 84f 83f
7:00pm  -   -   -  7 11 mph 1011.1mb 84f 83f
6:50pm 7ft 14s 9s 7 11 mph 1011mb 84f 83f
6:40pm  -   -   -  7 9 mph 1011mb 84f 83f
6:30pm  -   -   -  7 11 mph 1010.9mb 83f 82f
6:20pm  -   -   -  7 11 mph 1010.8mb 83f 82f
6:10pm  -   -   -  7 9 mph 1010.6mb 83f 82f
6:00pm  -   -   -  7 11 mph 1010.5mb 83f 82f
5:50pm 6ft 9s 8s 7 9 mph 1010.5mb 83f 82f
5:40pm 6ft  -  8s 7 9 mph 1010.4mb 83f 82f
5:30pm  -   -   -  7 11 mph 1010.3mb 83f 82f
5:20pm  -   -   -  7 11 mph 1010.3mb 83f 82f
5:10pm  -   -   -  7 11 mph 1010.1mb 84f 82f
5:00pm  -   -   -  7 9 mph 1010.1mb 84f 82f
4:50pm 7ft 14s 9s 7 9 mph 1010.1mb 84f 82f
4:40pm  -   -   -  4 7 mph 1010mb 84f 82f
4:30pm  -   -   -  4 7 mph 1010mb 84f 83f
4:20pm  -   -   -  4 7 mph 1010mb 84f 83f
4:10pm  -   -   -  2 4 mph 1010.1mb 84f 82f
4:00pm  -   -   -  2 4 mph 1010.3mb 84f 82f
3:50pm 6.5ft 9s 8s 4 7 mph 1010.4mb 84f 82f
3:40pm  -   -   -  4 7 mph 1010.3mb 83f 82f
3:30pm  -   -   -  4 7 mph 1010.4mb 83f 82f
3:20pm  -   -   -  4 7 mph 1010.5mb 83f 82f
3:10pm  -   -   -  2 4 mph 1010.5mb 83f 82f
3:00pm  -   -   -  4 7 mph 1010.5mb 83f 82f
2:50pm 7ft 15s 9s 4 7 mph 1010.5mb 83f 82f
2:40pm  -   -   -  4 7 mph 1010.5mb 83f 81f
2:30pm  -   -   -  2 4 mph 1010.5mb 83f 81f
2:20pm  -   -   -  4 9 mph 1010.8mb 84f 80f
2:10pm  -   -   -  4 7 mph 1010.8mb 83f 80f
2:00pm  -   -   -  4 7 mph 1011mb 83f 79f
1:50pm 6.5ft 15s 8s 7 9 mph 1011.3mb 85f 79f
1:40pm  -   -   -  4 9 mph 1011.4mb 84f 79f
1:30pm  -   -   -  9 13 mph 1011.4mb 84f 80f
1:20pm  -   -   -  9 16 mph 1011.3mb 84f 80f
1:10pm  -   -   -  2 9 mph 1011.5mb 84f 81f
1:00pm  -   -   -  2 4 mph 1011.5mb 83f 81f
12:50pm 6ft 13s 8s 2 4 mph 1011.6mb 83f 81f
12:40pm  -   -   -  4
mph
1011.8mb 83f 81f
12:30pm 6ft  -  8s 4 7 mph 1011.8mb 83f 81f
12:20pm  -   -   -  4 7 mph 1011.9mb 83f 80f
12:10pm  -   -   -  4 7 mph 1011.9mb 83f 80f
12:00pm  -   -   -  4 7 mph 1011.8mb 83f 80f
11:50am 6ft 11s 8s 4 7 mph 1011.9mb 83f 80f
11:40am  -   -   -  7 9 mph 1011.9mb 83f 80f
11:30am  -   -   -  7 9 mph 1012mb 83f 80f
11:20am  -   -   -  4 7 mph 1011.9mb 83f 80f
11:10am  -   -   -  2 7 mph 1011.9mb 82f 81f
11:00am  -   -   -  2 4 mph 1012mb 83f 81f
10:50am 6ft 14s 9s  -  2 mph 1012mb 83f 81f
10:40am  -   -   -   -  2 mph 1011.9mb 83f 81f
10:30am  -   -   -  2 4 mph 1011.9mb 83f 80f
10:20am  -   -   -   -  2 mph 1012mb 83f 80f
10:10am  -   -   -  2 4 mph 1011.9mb 83f 80f
10:00am  -   -   -  2 4 mph 1011.9mb 83f 80f
9:50am 6ft 13s 9s 7 9 mph 1011.9mb 83f 80f
9:40am 6ft  -  9s 9 13 mph 1012mb 83f 81f
9:30am  -   -   -  2 7 mph 1011.9mb 83f 82f
9:20am  -   -   -  2 4 mph 1012mb 83f 82f
9:10am  -   -   -  2 4 mph 1011.9mb 83f 82f
9:00am  -   -   -  2 4 mph 1011.8mb 83f 82f
8:50am 5.5ft 11s 9s 2 4 mph 1011.8mb 83f 82f
8:40am  -   -   -  2 4 mph 1011.6mb 83f 82f
8:30am  -   -   -   -  2 mph 1011.6mb 83f 83f
8:20am  -   -   -   -  2 mph 1011.5mb 83f 83f
8:10am  -   -   -   -  2 mph 1011.5mb 83f 82f
8:00am  -   -   -   -  2 mph 1011.5mb 83f 82f
7:50am 6ft 11s 9s  -  2 mph 1011.5mb 83f 82f
7:40am  -   -   -  2
mph
1011.3mb 83f 82f
7:30am  -   -   -  2 4 mph 1011.1mb 83f 82f
7:20am  -   -   -  2 4 mph 1011mb 83f 82f
7:10am  -   -   -  2 4 mph 1011mb 82f 81f
7:00am  -   -   -  2 4 mph 1011mb 82f 81f
6:50am 6ft 12s 9s 2 4 mph 1010.9mb 82f 81f
6:40am  -   -   -  2 4 mph 1010.8mb 82f 81f
6:30am  -   -   -  2 4 mph 1010.8mb 82f 81f
6:20am  -   -   -  2
mph
1011mb 82f 81f
6:10am  -   -   -   -  2 mph 1010.9mb 82f 80f
6:00am  -   -   -  2 4 mph 1010.6mb 82f 80f
5:50am 6ft 14s 8s 2 4 mph 1010.5mb 82f 80f
5:40am 6ft  -  8s 2 4 mph 1010.5mb 82f 80f
5:30am  -   -   -  2 4 mph 1010.4mb 82f 80f
5:20am  -   -   -  2 4 mph 1010.3mb 82f 81f
5:10am  -   -   -  2 4 mph 1010.3mb 82f 81f
5:00am  -   -   -  2 4 mph 1010.4mb 82f 81f
4:50am 5.5ft 13s 8s 2
mph
1010.4mb 82f 81f
4:40am  -   -   -  2 4 mph 1010.3mb 82f 81f
4:30am  -   -   -  2 4 mph 1010.1mb 82f 81f
4:20am  -   -   -  2 4 mph 1010mb 82f 81f
4:10am  -   -   -  2 4 mph 1010mb 82f 81f
4:00am  -   -   -  2 4 mph 1010mb 82f 81f
3:50am 6ft 12s 8s 2
mph
1010mb 82f 81f
3:40am 6ft  -  8s 2 4 mph 1010.1mb 82f 81f
3:30am  -   -   -   -  4 mph 1010.1mb 82f 81f
3:20am  -   -   -   -  2 mph 1010.1mb 82f 81f
3:10am  -   -   -   -  2 mph 1010.1mb 83f 81f
3:00am  -   -   -   -  2 mph 1010.4mb 83f 81f
2:50am 5.5ft 14s 8s  -  2 mph 1010.4mb 82f 81f
2:40am  -   -   -   -  2 mph 1010.4mb 82f 81f
2:30am  -   -   -   -  2 mph 1010.4mb 82f 81f
2:20am  -   -   -   -  2 mph 1010.5mb 83f 81f
2:10am  -   -   -  2 4 mph 1010.5mb 83f 81f
2:00am  -   -   -  2
mph
1010.5mb 82f 81f
1:50am 5ft 12s 8s  -  2 mph 1010.6mb 83f 81f
1:40am  -   -   -   -  2 mph 1010.6mb 82f 81f
1:30am  -   -   -   -  4 mph 1010.8mb 82f 81f
1:20am  -   -   -   -  2 mph 1010.9mb 83f 81f
1:10am  -   -   -  2 4 mph 1010.9mb 83f 81f
1:00am  -   -   -   -  2 mph 1011mb 83f 81f
12:50am 5ft 14s 8s  -  2 mph 1011.1mb 83f 81f
12:40am  -   -   -   -  2 mph 1011.1mb 83f 81f
12:30am  -   -   -   -  2 mph 1011.3mb 83f 81f
12:20am  -   -   -   -  2 mph 1011.5mb 83f 81f
12:10am  -   -   -  2 4 mph 1011.5mb 83f 81f
12:00am  -   -   -  2 4 mph 1011.5mb 83f 81f
Tue 08/25 11:50pm 5ft 13s 8s  -  2 mph 1011.5mb 83f 81f
11:40pm  -   -   -   -  2 mph 1011.8mb 83f 81f
11:30pm  -   -   -   -  2 mph 1011.9mb 83f 82f
11:20pm  -   -   -   -  2 mph 1011.9mb 83f 81f
11:10pm  -   -   -   -  2 mph 1011.9mb 83f 81f
11:00pm  -   -   -   -  mph 1011.9mb 83f 81f
10:50pm 5ft 15s 8s  -  mph 1011.9mb 83f 81f
10:40pm  -   -   -   -  mph 1011.9mb 83f 81f
10:30pm  -   -   -   -  mph 1011.9mb 83f 81f
10:20pm  -   -   -   -  2 mph 1011.8mb 83f 82f
10:10pm  -   -   -   -  2 mph 1011.8mb 83f 82f
10:00pm  -   -   -   -  2 mph 1011.6mb 83f 82f
9:50pm 5ft 14s 8s  -  2 mph 1011.5mb 83f 82f
9:40pm  -   -   -   -  2 mph 1011.5mb 83f 82f
9:30pm  -   -   -   -  2 mph 1011.5mb 83f 82f
9:20pm  -   -   -   -  2 mph 1011.5mb 83f 82f
9:10pm  -   -   -   -  2 mph 1011.5mb 83f 82f
9:00pm  -   -   -   -  2 mph 1011.5mb 83f 82f
8:50pm 5ft 14s 8s  -  mph 1011.4mb 83f 82f
8:40pm  -   -   -   -  2 mph 1011.4mb 83f 82f
8:30pm  -   -   -   -  2 mph 1011.1mb 83f 82f
8:20pm  -   -   -  2 4 mph 1011mb 83f 82f
8:10pm  -   -   -  2
mph
1011mb 83f 82f
8:00pm  -   -   -  2 4 mph 1011mb 83f 82f
7:50pm 4.5ft 15s 8s 2
mph
1011mb 83f 82f
7:40pm  -   -   -  2 4 mph 1010.9mb 83f 82f
7:30pm  -   -   -  2 4 mph 1010.8mb 83f 82f
7:20pm  -   -   -  2 4 mph 1010.6mb 83f 82f